Time;durP1;ratioP1;P1;durP2;ratioP2;P2;SDS_P1;SDS_P2;PMS_P1;PMS_P2;Temp;Humidity;BMP_temperature;BMP_pressure;BME280_temperature;BME280_humidity;BME280_pressure;Samples;Min_cycle;Max_cycle;Signal;HPM_P1;HPM_P2
2022/04/14 00:01:17;;;;;;;;;;;;;;;10.68;50.21;100110.41;5227432;27;33134;-93
2022/04/14 00:03:46;;;;;;;;;;;;;;;10.56;50.47;100107.88;5227818;27;33504;-93
2022/04/14 00:06:14;;;;;;;;;;;;;;;10.54;50.21;100107.03;5227366;27;35072;-91
2022/04/14 00:08:44;;;;;;;;;;;;;;;10.35;50.78;100111.47;5224326;27;33389;-91
2022/04/14 00:11:14;;;;;;;;;;;;;;;10.39;50.57;100109.69;5232766;27;34284;-92
2022/04/14 00:13:42;;;;;;;;;;;;;;;10.32;50.72;100103.72;5226932;27;34222;-92
2022/04/14 00:16:11;;;;;;;;;;;;;;;10.18;51.09;100101.16;5228873;27;33174;-92
2022/04/14 00:18:39;;;;;;;;;;;;;;;10.28;51.12;100101.09;5228594;27;34451;-92
2022/04/14 00:21:08;;;;;;;;;;;;;;;10.35;51.03;100102.81;5229030;27;34160;-93
2022/04/14 00:23:36;;;;;;;;;;;;;;;10.34;51.06;100096.78;5234271;27;34640;-91
2022/04/14 00:29:13;;;;;;;;;;;;;;;10.20;51.44;100101.16;5209085;27;20023;-94
2022/04/14 00:31:52;;;;;;;;;;;;;;;10.21;51.26;100102.84;5207207;27;33401;-93
2022/04/14 00:34:23;;;;;;;;;;;;;;;10.13;51.56;100102.91;5228414;27;34965;-92
2022/04/14 00:36:52;;;;;;;;;;;;;;;10.15;51.34;100100.31;5228946;27;34998;-91
2022/04/14 00:39:20;;;;;;;;;;;;;;;10.28;50.88;100101.09;5233637;27;34364;-93
2022/04/14 00:41:48;;;;;;;;;;;;;;;10.11;51.35;100103.78;5209436;27;32724;-91
2022/04/14 00:44:18;;;;;;;;;;;;;;;9.73;52.58;100104.78;5228540;27;34193;-91
2022/04/14 00:46:48;;;;;;;;;;;;;;;9.75;52.88;100097.87;5228395;27;34143;-90
2022/04/14 00:49:18;;;;;;;;;;;;;;;9.71;53.02;100098.72;5228237;27;34162;-93
2022/04/14 00:51:46;;;;;;;;;;;;;;;9.63;53.21;100098.75;5211021;27;33440;-93
2022/04/14 00:54:15;;;;;;;;;;;;;;;9.75;53.07;100090.09;5233823;27;34102;-91
2022/04/14 00:56:43;;;;;;;;;;;;;;;9.54;53.42;100086.72;5228712;27;35041;-91
2022/04/14 00:59:12;;;;;;;;;;;;;;;9.65;52.82;100091.84;5228507;27;34165;-91
2022/04/14 01:01:42;;;;;;;;;;;;;;;9.24;53.84;100094.53;5228517;27;33648;-91
2022/04/14 01:04:11;;;;;;;;;;;;;;;9.73;52.30;100092.69;5228554;27;33219;-91
2022/04/14 01:06:39;;;;;;;;;;;;;;;9.28;53.49;100098.81;5233823;27;33986;-92
2022/04/14 01:09:20;;;;;;;;;;;;;;;9.49;52.89;100090.16;5228729;27;35405;-93
2022/04/14 01:11:49;;;;;;;;;;;;;;;9.56;52.71;100089.28;5229139;27;33666;-92
2022/04/14 01:14:21;;;;;;;;;;;;;;;9.53;52.85;100095.34;5228255;27;34027;-91
2022/04/14 01:16:51;;;;;;;;;;;;;;;9.63;52.39;100093.59;5228646;27;34298;-94
2022/04/14 01:19:19;;;;;;;;;;;;;;;9.56;52.54;100089.28;5230856;27;34101;-91
2022/04/14 01:21:51;;;;;;;;;;;;;;;9.41;52.97;100092.78;5233035;27;33784;-92
2022/04/14 01:24:21;;;;;;;;;;;;;;;9.49;52.49;100095.34;5228692;27;33814;-91
2022/04/14 01:26:49;;;;;;;;;;;;;;;9.48;52.54;100088.47;5228507;27;34307;-94
2022/04/14 01:29:21;;;;;;;;;;;;;;;9.49;52.39;100083.25;5228293;27;34315;-92
2022/04/14 01:31:50;;;;;;;;;;;;;;;9.42;52.67;100085.88;5229958;27;33555;-91
2022/04/14 01:34:19;;;;;;;;;;;;;;;9.46;52.38;100083.25;5233613;27;34441;-93
2022/04/14 01:36:48;;;;;;;;;;;;;;;9.40;52.59;100080.72;5228635;27;34656;-94
2022/04/14 01:39:18;;;;;;;;;;;;;;;9.64;51.36;100087.56;5228234;27;34690;-92
2022/04/14 01:41:48;;;;;;;;;;;;;;;9.47;51.73;100089.31;5228438;27;34217;-93
2022/04/14 01:44:17;;;;;;;;;;;;;;;9.36;52.18;100094.50;5228863;27;34093;-91
2022/04/14 01:46:45;;;;;;;;;;;;;;;9.66;51.45;100096.16;5233592;27;34360;-92
2022/04/14 01:49:14;;;;;;;;;;;;;;;9.58;51.59;100092.75;5228403;27;34403;-93
2022/04/14 01:51:42;;;;;;;;;;;;;;;9.51;51.93;100091.87;5230129;27;33184;-91
2022/04/14 01:54:11;;;;;;;;;;;;;;;9.43;52.42;100095.38;5227246;27;35371;-90
2022/04/14 01:56:39;;;;;;;;;;;;;;;9.40;52.45;100094.50;5229308;27;34167;-93
2022/04/14 01:59:09;;;;;;;;;;;;;;;9.57;51.71;100097.06;5233266;27;34754;-93
2022/04/14 02:01:38;;;;;;;;;;;;;;;9.63;51.30;100091.00;5231268;27;34945;-90
2022/04/14 02:04:07;;;;;;;;;;;;;;;9.65;50.97;100089.25;5228224;27;34371;-93
2022/04/14 02:06:36;;;;;;;;;;;;;;;9.52;51.56;100095.31;5228259;27;34913;-92
2022/04/14 02:09:04;;;;;;;;;;;;;;;9.33;51.95;100102.31;5227460;27;35294;-93
2022/04/14 02:11:32;;;;;;;;;;;;;;;9.17;52.36;100098.84;5233497;27;34278;-92
2022/04/14 02:14:01;;;;;;;;;;;;;;;9.27;51.98;100092.78;5228418;27;33670;-92
2022/04/14 02:16:31;;;;;;;;;;;;;;;9.47;51.48;100094.47;5228615;27;35330;-92
2022/04/14 02:18:59;;;;;;;;;;;;;;;9.33;51.46;100099.72;5227877;27;34533;-91
2022/04/14 02:21:31;;;;;;;;;;;;;;;9.31;51.53;100099.69;5228303;27;32510;-93
2022/04/14 02:23:59;;;;;;;;;;;;;;;9.47;51.03;100097.06;5233931;27;33824;-93
2022/04/14 02:26:28;;;;;;;;;;;;;;;9.53;51.07;100097.06;5228346;27;33983;-92
2022/04/14 02:28:56;;;;;;;;;;;;;;;9.40;51.30;100091.06;5228367;27;34562;-93
2022/04/14 02:31:25;;;;;;;;;;;;;;;9.49;50.93;100092.75;5228400;27;32899;-93
2022/04/14 02:33:55;;;;;;;;;;;;;;;9.19;51.51;100100.56;5227534;27;34252;-91
2022/04/14 02:36:23;;;;;;;;;;;;;;;9.18;51.50;100103.16;5233341;27;34158;-92
2022/04/14 02:38:52;;;;;;;;;;;;;;;9.13;51.23;100100.59;5232915;27;34172;-91
2022/04/14 02:41:21;;;;;;;;;;;;;;;9.13;51.52;100105.78;5228113;27;34331;-92
2022/04/14 02:43:50;;;;;;;;;;;;;;;9.05;51.83;100101.44;5228840;27;34101;-92
2022/04/14 02:46:18;;;;;;;;;;;;;;;9.13;52.04;100104.87;5228308;27;33955;-93
2022/04/14 02:48:47;;;;;;;;;;;;;;;9.01;52.20;100100.56;5227813;27;34763;-93
2022/04/14 02:51:16;;;;;;;;;;;;;;;9.05;51.99;100102.31;5233276;27;33429;-93
2022/04/14 02:53:45;;;;;;;;;;;;;;;8.78;52.91;100098.00;5228058;27;33720;-91
2022/04/14 02:56:13;;;;;;;;;;;;;;;8.87;52.68;100103.19;5228827;27;35123;-92
2022/04/14 02:58:42;;;;;;;;;;;;;;;8.92;52.42;100096.28;5228681;27;34279;-92
2022/04/14 03:01:10;;;;;;;;;;;;;;;8.78;52.98;100091.97;5228246;27;33230;-93
2022/04/14 03:03:41;;;;;;;;;;;;;;;8.80;53.01;100092.84;5233483;27;35514;-93
2022/04/14 03:06:09;;;;;;;;;;;;;;;8.90;52.58;100092.81;5227782;27;34006;-94
2022/04/14 03:08:39;;;;;;;;;;;;;;;8.67;53.05;100091.94;5228235;27;35052;-91
2022/04/14 03:11:08;;;;;;;;;;;;;;;8.77;52.61;100088.53;5228832;27;32629;-91
2022/04/14 03:13:36;;;;;;;;;;;;;;;9.01;51.76;100090.22;5229584;27;33908;-91
2022/04/14 03:16:05;;;;;;;;;;;;;;;8.86;52.19;100100.59;5234233;27;33972;-94
2022/04/14 03:18:34;;;;;;;;;;;;;;;8.91;52.06;100101.44;5228940;27;34206;-92
2022/04/14 03:21:03;;;;;;;;;;;;;;;9.01;51.49;100095.41;5229147;27;33271;-92
2022/04/14 03:23:31;;;;;;;;;;;;;;;8.86;52.20;100098.00;5229279;27;33864;-94
2022/04/14 03:26:03;;;;;;;;;;;;;;;8.56;52.99;100099.69;5229091;27;33358;-92
2022/04/14 03:28:35;;;;;;;;;;;;;;;8.46;53.42;100100.56;5232715;27;34417;-91
2022/04/14 03:31:04;;;;;;;;;;;;;;;8.54;53.15;100097.09;5232902;27;32143;-93
2022/04/14 03:33:32;;;;;;;;;;;;;;;8.64;52.84;100092.81;5229220;27;35044;-93
2022/04/14 03:36:01;;;;;;;;;;;;;;;8.50;53.17;100100.53;5229335;27;34127;-91
2022/04/14 03:38:29;;;;;;;;;;;;;;;8.56;53.17;100096.25;5229218;27;34909;-94
2022/04/14 03:41:05;;;;;;;;;;;;;;;8.51;53.50;100109.19;5229330;27;33463;-93
2022/04/14 03:43:34;;;;;;;;;;;;;;;8.27;54.02;100104.78;5234269;27;34077;-93
2022/04/14 03:46:03;;;;;;;;;;;;;;;8.49;53.69;100101.41;5229409;27;34281;-90
2022/04/14 03:48:31;;;;;;;;;;;;;;;8.32;53.89;100108.22;5228965;27;34117;-92
2022/04/14 03:51:00;;;;;;;;;;;;;;;8.20;54.36;100106.47;5228836;27;32999;-91
2022/04/14 03:53:28;;;;;;;;;;;;;;;8.12;54.80;100103.00;5229447;27;34975;-92
2022/04/14 03:55:57;;;;;;;;;;;;;;;8.33;54.13;100104.78;5234088;27;34662;-90
2022/04/14 03:58:27;;;;;;;;;;;;;;;8.38;53.96;100113.41;5229229;27;34965;-91
2022/04/14 04:00:55;;;;;;;;;;;;;;;8.35;54.07;100105.66;5228804;27;33201;-93
2022/04/14 04:03:24;;;;;;;;;;;;;;;8.18;54.41;100109.91;5228669;27;34495;-93
2022/04/14 04:05:53;;;;;;;;;;;;;;;8.56;53.55;100114.38;5229233;27;33959;-92
2022/04/14 04:08:22;;;;;;;;;;;;;;;8.26;54.31;100108.19;5234285;27;34695;-90
2022/04/14 04:10:52;;;;;;;;;;;;;;;8.42;53.80;100116.91;5233036;27;33468;-92
2022/04/14 04:13:20;;;;;;;;;;;;;;;8.48;53.47;100120.38;5229166;27;35235;-91
2022/04/14 04:15:51;;;;;;;;;;;;;;;8.57;53.23;100116.06;5228819;27;34237;-90
2022/04/14 04:18:19;;;;;;;;;;;;;;;8.46;53.76;100110.91;5230539;27;33450;-91
2022/04/14 04:20:48;;;;;;;;;;;;;;;8.45;53.79;100120.34;5228440;27;33793;-91
2022/04/14 04:23:16;;;;;;;;;;;;;;;8.72;52.75;100118.66;5234008;27;34415;-92
2022/04/14 04:25:45;;;;;;;;;;;;;;;8.94;52.39;100117.84;5228674;27;34644;-91
2022/04/14 04:28:15;;;;;;;;;;;;;;;8.91;52.23;100115.25;5228071;27;34423;-92
2022/04/14 04:30:43;;;;;;;;;;;;;;;8.45;53.46;100116.91;5228422;27;33432;-92
2022/04/14 04:33:13;;;;;;;;;;;;;;;8.52;53.34;100123.81;5228676;27;34257;-92
2022/04/14 04:35:42;;;;;;;;;;;;;;;8.70;53.01;100112.66;5233969;27;34869;-92
2022/04/14 04:38:10;;;;;;;;;;;;;;;8.65;52.96;100112.66;5228644;27;34960;-91
2022/04/14 04:40:39;;;;;;;;;;;;;;;8.59;53.32;100122.13;5228588;27;33738;-91
2022/04/14 04:43:08;;;;;;;;;;;;;;;8.62;53.36;100122.13;5228829;27;34137;-90
2022/04/14 04:45:37;;;;;;;;;;;;;;;8.70;53.10;100128.19;5228807;27;35100;-92
2022/04/14 04:48:06;;;;;;;;;;;;;;;8.71;52.90;100124.72;5233656;27;34593;-95
2022/04/14 04:50:35;;;;;;;;;;;;;;;8.58;53.50;100134.19;5228345;27;33610;-92
2022/04/14 04:53:04;;;;;;;;;;;;;;;8.65;52.34;100137.62;5228829;27;34079;-91
2022/04/14 04:55:33;;;;;;;;;;;;;;;9.04;50.81;100138.56;5227940;27;33963;-92
2022/04/14 04:58:02;;;;;;;;;;;;;;;8.85;50.71;100132.50;5228596;27;34383;-92
2022/04/14 05:00:30;;;;;;;;;;;;;;;8.86;51.22;100145.41;5233771;27;33577;-90
2022/04/14 05:03:01;;;;;;;;;;;;;;;8.79;51.56;100145.41;5232821;27;33633;-92
2022/04/14 05:05:30;;;;;;;;;;;;;;;8.90;50.96;100142.00;5229015;27;35020;-93
2022/04/14 05:08:00;;;;;;;;;;;;;;;8.86;50.98;100148.00;5228296;27;34338;-91
2022/04/14 05:10:28;;;;;;;;;;;;;;;8.82;51.48;100156.66;5228711;27;33405;-94
2022/04/14 05:12:57;;;;;;;;;;;;;;;9.01;51.16;100151.47;5228502;27;33514;-93
2022/04/14 05:15:27;;;;;;;;;;;;;;;8.95;51.59;100158.38;5234149;27;33632;-93
2022/04/14 05:17:55;;;;;;;;;;;;;;;9.07;50.58;100157.53;5228250;27;35022;-93
2022/04/14 05:20:23;;;;;;;;;;;;;;;9.39;49.89;100154.91;5228275;27;33716;-92
2022/04/14 05:22:52;;;;;;;;;;;;;;;9.63;49.35;100153.16;5228634;27;34944;-92
2022/04/14 05:25:22;;;;;;;;;;;;;;;9.74;49.39;100150.56;5228617;27;34087;-92
2022/04/14 05:27:50;;;;;;;;;;;;;;;10.14;47.99;100156.47;5233856;27;35133;-91
2022/04/14 05:30:19;;;;;;;;;;;;;;;10.58;46.83;100152.84;5228542;27;33255;-93
2022/04/14 05:32:47;;;;;;;;;;;;;;;11.06;45.41;100155.09;5227470;27;35173;-90
2022/04/14 05:35:16;;;;;;;;;;;;;;;11.60;44.31;100155.50;5228485;27;32845;-91
2022/04/14 05:37:44;;;;;;;;;;;;;;;12.08;43.10;100165.41;5227796;27;34064;-91
2022/04/14 05:40:13;;;;;;;;;;;;;;;12.84;40.56;100163.53;5233707;27;33522;-90
2022/04/14 05:42:46;;;;;;;;;;;;;;;13.13;39.98;100159.63;5228326;27;35998;-91
2022/04/14 05:45:15;;;;;;;;;;;;;;;13.10;39.78;100168.34;5228452;27;34866;-92
2022/04/14 05:47:43;;;;;;;;;;;;;;;12.63;40.69;100169.91;5227581;27;35246;-90
2022/04/14 05:50:12;;;;;;;;;;;;;;;12.25;41.32;100163.47;5228059;27;33453;-90
2022/04/14 05:52:43;;;;;;;;;;;;;;;12.15;42.18;100160.13;5232057;27;34126;-92
2022/04/14 05:55:16;;;;;;;;;;;;;;;12.01;42.69;100163.75;5241750;27;34559;-89
2022/04/14 05:57:46;;;;;;;;;;;;;;;11.91;43.35;100161.28;5227361;27;34618;-90
2022/04/14 06:00:15;;;;;;;;;;;;;;;11.62;43.80;100158.06;5227842;27;33264;-93
2022/04/14 06:02:44;;;;;;;;;;;;;;;11.83;43.70;100160.44;5228473;27;34661;-92
2022/04/14 06:05:12;;;;;;;;;;;;;;;11.94;43.34;100158.63;5227941;27;34623;-89
2022/04/14 06:07:40;;;;;;;;;;;;;;;11.86;43.85;100156.94;5231212;27;36797;-92
2022/04/14 06:10:12;;;;;;;;;;;;;;;11.86;45.44;100155.25;5228063;27;33123;-91
2022/04/14 06:12:41;;;;;;;;;;;;;;;12.22;44.66;100160.03;5228060;27;33358;-90
2022/04/14 06:15:11;;;;;;;;;;;;;;;12.14;45.28;100153.19;5228302;27;34302;-93
2022/04/14 06:17:39;;;;;;;;;;;;;;;12.03;44.32;100157.66;5226048;27;32871;-91
2022/04/14 06:20:08;;;;;;;;;;;;;;;11.67;44.35;100153.69;5233542;27;34310;-93
2022/04/14 06:22:37;;;;;;;;;;;;;;;11.48;45.27;100166.88;5227157;27;33651;-90
2022/04/14 06:25:12;;;;;;;;;;;;;;;11.81;43.78;100158.75;5227496;27;35109;-94
2022/04/14 06:27:40;;;;;;;;;;;;;;;11.84;43.46;100162.19;5227317;27;35341;-92
2022/04/14 06:30:11;;;;;;;;;;;;;;;12.17;43.46;100166.16;5230484;27;33310;-90
2022/04/14 06:32:39;;;;;;;;;;;;;;;12.31;42.87;100159.94;5228219;27;34385;-92
2022/04/14 06:35:09;;;;;;;;;;;;;;;12.23;42.09;100162.63;5232958;27;35172;-91
2022/04/14 06:37:37;;;;;;;;;;;;;;;12.28;42.27;100147.81;5227414;27;34358;-92
2022/04/14 06:40:06;;;;;;;;;;;;;;;12.54;42.03;100159.59;5228007;27;33546;-90
2022/04/14 06:42:55;;;;;;;;;;;;;;;12.34;43.30;100152.94;5227616;27;34150;-90
2022/04/14 06:45:25;;;;;;;;;;;;;;;12.45;43.87;100158.00;5228492;27;34048;-91
2022/04/14 06:47:58;;;;;;;;;;;;;;;13.18;41.85;100155.19;5232358;27;35188;-89
2022/04/14 06:50:26;;;;;;;;;;;;;;;12.80;42.50;100162.69;5234139;27;33573;-91
2022/04/14 06:52:55;;;;;;;;;;;;;;;12.95;40.65;100159.03;5228162;27;34875;-90
2022/04/14 06:55:23;;;;;;;;;;;;;;;13.13;40.30;100162.22;5228951;27;33738;-90
2022/04/14 06:57:52;;;;;;;;;;;;;;;13.51;39.18;100164.22;5227719;27;34427;-90
2022/04/14 07:00:21;;;;;;;;;;;;;;;13.58;39.92;100163.22;5228396;27;33441;-89
2022/04/14 07:02:51;;;;;;;;;;;;;;;13.45;39.04;100152.13;5233230;27;34144;-91
2022/04/14 07:05:20;;;;;;;;;;;;;;;13.73;39.86;100158.63;5228703;27;34132;-92
2022/04/14 07:07:48;;;;;;;;;;;;;;;14.23;38.89;100156.75;5227809;27;34499;-92
2022/04/14 07:10:17;;;;;;;;;;;;;;;14.43;36.58;100151.97;5228255;27;33573;-91
2022/04/14 07:12:46;;;;;;;;;;;;;;;14.85;37.26;100153.69;5233914;27;34338;-91
2022/04/14 07:15:15;;;;;;;;;;;;;;;15.22;36.29;100158.91;5228381;27;34330;-91
2022/04/14 07:17:44;;;;;;;;;;;;;;;15.52;36.70;100162.50;5228280;27;34068;-91
2022/04/14 07:20:14;;;;;;;;;;;;;;;15.64;34.09;100153.47;5228082;27;33515;-90
2022/04/14 07:22:43;;;;;;;;;;;;;;;15.83;33.47;100150.41;5228195;27;34387;-92
2022/04/14 07:25:11;;;;;;;;;;;;;;;15.67;32.37;100153.38;5232531;27;33821;-91
2022/04/14 07:27:40;;;;;;;;;;;;;;;15.83;33.28;100151.25;5227836;27;34588;-91
2022/04/14 07:30:09;;;;;;;;;;;;;;;16.20;32.36;100152.81;5228437;27;33722;-89
2022/04/14 07:32:38;;;;;;;;;;;;;;;16.26;32.96;100150.03;5228155;27;33591;-94
2022/04/14 07:35:07;;;;;;;;;;;;;;;16.44;32.08;100156.47;5228304;27;33784;-89
2022/04/14 07:37:37;;;;;;;;;;;;;;;16.45;30.86;100152.94;5234589;27;34250;-89
2022/04/14 07:40:07;;;;;;;;;;;;;;;16.27;30.40;100148.28;5230764;27;34750;-92
2022/04/14 07:42:36;;;;;;;;;;;;;;;16.72;30.15;100153.00;5228405;27;34367;-92
2022/04/14 07:45:05;;;;;;;;;;;;;;;16.33;27.93;100155.94;5228376;27;34869;-91
2022/04/14 07:47:41;;;;;;;;;;;;;;;16.68;28.41;100154.88;5228548;27;34487;-89
2022/04/14 07:50:10;;;;;;;;;;;;;;;16.78;28.51;100158.06;5228634;27;33429;-89
2022/04/14 07:52:46;;;;;;;;;;;;;;;16.92;28.66;100158.53;5233606;27;34673;-90
2022/04/14 07:55:18;;;;;;;;;;;;;;;17.03;28.47;100156.44;5228519;27;34856;-90
2022/04/14 07:57:47;;;;;;;;;;;;;;;17.23;27.56;100158.41;5228545;27;34004;-89
2022/04/14 08:00:16;;;;;;;;;;;;;;;17.23;25.85;100157.53;5228778;27;33610;-91
2022/04/14 08:02:48;;;;;;;;;;;;;;;17.19;26.47;100158.53;5228848;27;34485;-93
2022/04/14 08:05:17;;;;;;;;;;;;;;;17.54;25.99;100161.72;5231438;27;34411;-91
2022/04/14 08:07:47;;;;;;;;;;;;;;;17.72;24.75;100158.47;5233158;27;35338;-89
2022/04/14 08:10:16;;;;;;;;;;;;;;;17.60;24.78;100158.91;5228508;27;33423;-91
2022/04/14 08:12:44;;;;;;;;;;;;;;;17.78;24.17;100158.25;5227696;27;33869;-91
2022/04/14 08:15:13;;;;;;;;;;;;;;;17.90;23.48;100162.25;5228065;27;34351;-91
2022/04/14 08:17:41;;;;;;;;;;;;;;;18.24;24.00;100159.28;5230015;27;35010;-91
2022/04/14 08:20:17;;;;;;;;;;;;;;;18.18;22.84;100162.09;5233828;27;33629;-90
2022/04/14 08:22:51;;;;;;;;;;;;;;;18.44;22.53;100158.50;5228315;27;33900;-93
2022/04/14 08:25:20;;;;;;;;;;;;;;;18.57;22.66;100158.03;5228582;27;34083;-91
2022/04/14 08:27:49;;;;;;;;;;;;;;;18.63;22.99;100166.53;5227726;27;33732;-90
2022/04/14 08:30:18;;;;;;;;;;;;;;;18.46;21.90;100153.19;5227969;27;34179;-91
2022/04/14 08:32:47;;;;;;;;;;;;;;;18.62;22.75;100162.19;5233809;27;34994;-89
2022/04/14 08:35:16;;;;;;;;;;;;;;;18.93;24.20;100161.00;5227773;27;34332;-90
2022/04/14 08:37:44;;;;;;;;;;;;;;;18.93;23.60;100164.50;5228016;27;34085;-90
2022/04/14 08:40:15;;;;;;;;;;;;;;;18.92;24.55;100162.78;5227698;27;33225;-89
2022/04/14 08:42:44;;;;;;;;;;;;;;;18.50;22.99;100158.25;5227827;27;34410;-90
2022/04/14 08:45:13;;;;;;;;;;;;;;;18.60;23.63;100158.75;5228407;27;33883;-92
2022/04/14 08:47:41;;;;;;;;;;;;;;;18.62;23.65;100151.69;5233872;27;34386;-92
2022/04/14 08:50:11;;;;;;;;;;;;;;;18.73;25.36;100160.00;5228019;27;33861;-91
2022/04/14 08:52:40;;;;;;;;;;;;;;;18.74;25.45;100168.75;5228624;27;33532;-90
2022/04/14 08:55:10;;;;;;;;;;;;;;;18.32;23.39;100156.34;5228280;27;34585;-90
2022/04/14 08:57:41;;;;;;;;;;;;;;;18.49;24.89;100161.81;5228248;27;34600;-89
2022/04/14 09:00:10;;;;;;;;;;;;;;;18.60;24.57;100157.91;5233870;27;34304;-88
2022/04/14 09:02:39;;;;;;;;;;;;;;;18.41;23.72;100160.38;5228529;27;33704;-92
2022/04/14 09:05:08;;;;;;;;;;;;;;;18.46;22.60;100161.06;5228111;27;35069;-89
2022/04/14 09:07:36;;;;;;;;;;;;;;;18.62;23.16;100161.34;5227745;27;34438;-91
2022/04/14 09:10:08;;;;;;;;;;;;;;;18.71;23.66;100153.94;5227697;27;33636;-91
2022/04/14 09:12:36;;;;;;;;;;;;;;;18.58;24.62;100152.72;5233894;27;34381;-90
2022/04/14 09:15:07;;;;;;;;;;;;;;;18.52;23.79;100163.47;5227528;27;34065;-92
2022/04/14 09:17:35;;;;;;;;;;;;;;;18.72;24.99;100157.41;5227936;27;34637;-90
2022/04/14 09:20:19;;;;;;;;;;;;;;;18.97;24.98;100165.25;5227820;27;34132;-93
2022/04/14 09:22:47;;;;;;;;;;;;;;;18.97;23.18;100158.22;5208893;27;33582;-93
2022/04/14 09:25:19;;;;;;;;;;;;;;;18.55;22.80;100151.06;5228209;27;34780;-91
2022/04/14 09:27:48;;;;;;;;;;;;;;;18.81;23.97;100159.72;5234573;27;35095;-91
2022/04/14 09:30:18;;;;;;;;;;;;;;;18.83;23.38;100152.63;5231508;27;33711;-90
2022/04/14 09:32:46;;;;;;;;;;;;;;;19.00;23.09;100161.63;5232064;27;34112;-90
2022/04/14 09:35:16;;;;;;;;;;;;;;;19.07;23.00;100149.94;5231800;27;33992;-89
2022/04/14 09:37:45;;;;;;;;;;;;;;;18.91;21.82;100155.81;5231543;27;34242;-91
2022/04/14 09:40:13;;;;;;;;;;;;;;;18.83;23.62;100157.91;5235281;27;33325;-88
2022/04/14 09:42:42;;;;;;;;;;;;;;;18.44;22.71;100153.25;5231201;27;34275;-88
2022/04/14 09:45:18;;;;;;;;;;;;;;;19.03;22.77;100153.63;5232153;27;34680;-89
2022/04/14 09:48:04;;;;;;;;;;;;;;;19.02;22.13;100147.50;5233793;27;34312;-89
2022/04/14 09:50:39;;;;;;;;;;;;;;;18.81;21.31;100149.22;5232105;27;33142;-90
2022/04/14 09:53:08;;;;;;;;;;;;;;;19.09;21.38;100140.22;5231250;27;35061;-91
2022/04/14 09:55:36;;;;;;;;;;;;;;;19.23;22.01;100144.91;5234054;27;34980;-87
2022/04/14 09:58:09;;;;;;;;;;;;;;;19.49;22.67;100141.16;5230881;27;33306;-92
2022/04/14 10:00:46;;;;;;;;;;;;;;;19.27;20.81;100135.97;5229711;27;33194;-90
2022/04/14 10:03:16;;;;;;;;;;;;;;;19.57;20.71;100131.16;5229647;27;34311;-87
2022/04/14 10:05:45;;;;;;;;;;;;;;;19.28;21.96;100129.78;5229472;27;33481;-90
2022/04/14 10:08:13;;;;;;;;;;;;;;;19.53;21.25;100133.09;5229610;27;33835;-89
2022/04/14 10:10:48;;;;;;;;;;;;;;;19.38;21.79;100124.06;5232655;27;32641;-89
2022/04/14 10:13:17;;;;;;;;;;;;;;;19.43;22.31;100126.50;5230128;27;34590;-90
2022/04/14 10:15:48;;;;;;;;;;;;;;;19.66;20.30;100116.75;5231243;27;34176;-91
2022/04/14 10:18:17;;;;;;;;;;;;;;;19.68;21.75;100120.22;5231938;27;34796;-87
2022/04/14 10:20:46;;;;;;;;;;;;;;;19.69;22.25;100116.62;5231424;27;33580;-91
2022/04/14 10:23:15;;;;;;;;;;;;;;;19.74;21.30;100112.91;5233420;27;34346;-90
2022/04/14 10:25:44;;;;;;;;;;;;;;;20.00;22.14;100116.13;5230727;27;33855;-92
2022/04/14 10:28:13;;;;;;;;;;;;;;;20.28;22.20;100113.09;5224711;27;34452;-90
2022/04/14 10:30:44;;;;;;;;;;;;;;;20.32;20.71;100109.41;5225941;27;32980;-90
2022/04/14 10:33:20;;;;;;;;;;;;;;;20.23;21.02;100110.66;5225204;27;35047;-90
2022/04/14 10:35:49;;;;;;;;;;;;;;;20.32;21.23;100109.41;5225594;27;32944;-92
2022/04/14 10:38:19;;;;;;;;;;;;;;;20.40;21.30;100109.03;5230281;27;34128;-88
2022/04/14 10:40:49;;;;;;;;;;;;;;;20.42;19.85;100102.75;5227214;27;33836;-91
2022/04/14 10:43:19;;;;;;;;;;;;;;;20.47;20.22;100102.53;5226979;27;34247;-90
2022/04/14 10:45:48;;;;;;;;;;;;;;;20.63;20.82;100098.28;5227459;27;33469;-91
2022/04/14 10:48:28;;;;;;;;;;;;;;;20.60;19.91;100103.69;5228479;27;35082;-89
2022/04/14 10:51:15;;;;;;;;;;;;;;;20.87;20.95;100101.47;5229017;27;34162;-90
2022/04/14 10:53:51;;;;;;;;;;;;;;;20.84;19.80;100095.53;5231802;27;35033;-89
2022/04/14 10:56:39;;;;;;;;;;;;;;;20.93;19.62;100086.31;5228914;27;35029;-90
2022/04/14 10:59:09;;;;;;;;;;;;;;;21.05;20.36;100088.34;5227876;27;34428;-89
2022/04/14 11:01:58;;;;;;;;;;;;;;;20.77;19.90;100094.97;5228142;27;32863;-91
2022/04/14 11:04:29;;;;;;;;;;;;;;;20.49;20.23;100097.19;5225180;27;33936;-89
2022/04/14 11:07:01;;;;;;;;;;;;;;;20.96;21.00;100092.28;5228679;27;33827;-90
2022/04/14 11:09:48;;;;;;;;;;;;;;;20.66;19.51;100105.19;5226176;27;35342;-89
2022/04/14 11:12:18;;;;;;;;;;;;;;;21.12;20.32;100095.00;5232004;27;33336;-90
2022/04/14 11:14:48;;;;;;;;;;;;;;;21.29;18.42;100095.00;5228084;27;34021;-88
2022/04/14 11:17:36;;;;;;;;;;;;;;;20.87;20.19;100082.19;5225074;27;34346;-90
2022/04/14 11:20:13;;;;;;;;;;;;;;;21.14;19.42;100085.22;5225478;27;34579;-88
2022/04/14 11:23:01;;;;;;;;;;;;;;;21.24;21.27;100069.78;5225397;27;32856;-88
2022/04/14 11:25:45;;;;;;;;;;;;;;;20.83;19.67;100078.84;5228705;27;34140;-89
2022/04/14 11:28:17;;;;;;;;;;;;;;;21.29;19.59;100068.63;5228371;27;33908;-90
2022/04/14 11:30:46;;;;;;;;;;;;;;;21.52;19.91;100070.06;5229863;27;35279;-91
2022/04/14 11:33:22;;;;;;;;;;;;;;;21.38;18.75;100062.00;5228675;27;33902;-90
2022/04/14 11:35:52;;;;;;;;;;;;;;;21.81;18.67;100069.47;5224717;27;34962;-89
2022/04/14 11:38:41;;;;;;;;;;;;;;;21.75;19.38;100070.66;5223191;27;35232;-89
2022/04/14 11:41:23;;;;;;;;;;;;;;;22.23;18.97;100061.03;5226285;27;34295;-90
2022/04/14 11:43:51;;;;;;;;;;;;;;;22.31;18.11;100057.97;5224258;27;33583;-88
2022/04/14 11:46:22;;;;;;;;;;;;;;;22.35;18.24;100054.22;5224027;27;33855;-89
2022/04/14 11:48:51;;;;;;;;;;;;;;;22.34;19.23;100053.34;5228623;27;33903;-89
2022/04/14 11:51:21;;;;;;;;;;;;;;;22.41;17.96;100053.84;5224489;27;33881;-89
2022/04/14 11:53:49;;;;;;;;;;;;;;;22.45;16.79;100055.41;5224659;27;34005;-90
2022/04/14 11:56:37;;;;;;;;;;;;;;;22.82;18.78;100047.97;5225889;27;33986;-88
2022/04/14 11:59:08;;;;;;;;;;;;;;;23.16;17.50;100043.38;5226653;27;33881;-89
2022/04/14 12:01:48;;;;;;;;;;;;;;;23.19;17.12;100036.09;5225033;27;34205;-87
2022/04/14 12:04:16;;;;;;;;;;;;;;;23.18;17.86;100045.00;5231779;27;34109;-89
2022/04/14 12:06:56;;;;;;;;;;;;;;;23.53;17.30;100044.63;5225452;27;33972;-88
2022/04/14 12:09:25;;;;;;;;;;;;;;;23.30;17.90;100032.81;5225093;27;33987;-89
2022/04/14 12:11:53;;;;;;;;;;;;;;;23.59;17.87;100033.69;5226093;27;35497;-90
2022/04/14 12:14:22;;;;;;;;;;;;;;;23.06;17.02;100031.66;5226502;27;34282;-89
2022/04/14 12:16:51;;;;;;;;;;;;;;;23.74;17.38;100031.91;5224304;27;33285;-88
2022/04/14 12:19:20;;;;;;;;;;;;;;;23.89;17.57;100029.25;5231232;27;35080;-89
2022/04/14 12:22:02;;;;;;;;;;;;;;;24.13;17.77;100030.31;5225757;27;34850;-88
2022/04/14 12:24:31;;;;;;;;;;;;;;;23.92;16.86;100018.44;5225934;27;33044;-89
2022/04/14 12:27:00;;;;;;;;;;;;;;;23.78;17.02;100012.22;5224811;27;34276;-87
2022/04/14 12:29:28;;;;;;;;;;;;;;;23.80;16.83;100002.38;5225214;27;34653;-89
2022/04/14 12:31:58;;;;;;;;;;;;;;;23.79;17.18;99998.03;5231082;27;35094;-88
2022/04/14 12:34:29;;;;;;;;;;;;;;;23.71;16.06;99997.62;5223016;27;36254;-88
2022/04/14 12:37:12;;;;;;;;;;;;;;;24.16;16.22;100001.00;5224514;27;33554;-87
2022/04/14 12:39:54;;;;;;;;;;;;;;;24.75;15.93;99992.72;5226930;27;34210;-88
2022/04/14 12:42:24;;;;;;;;;;;;;;;24.78;16.29;99987.19;5227232;27;34108;-87
2022/04/14 12:44:55;;;;;;;;;;;;;;;24.84;15.73;99977.94;5227824;27;33317;-90
2022/04/14 12:47:43;;;;;;;;;;;;;;;24.82;16.84;99983.38;5231224;27;33679;-88
2022/04/14 12:50:11;;;;;;;;;;;;;;;24.63;15.45;99978.47;5231604;27;33827;-88
2022/04/14 12:52:56;;;;;;;;;;;;;;;24.80;15.97;99965.88;5226002;27;34418;-87
2022/04/14 12:55:25;;;;;;;;;;;;;;;24.92;15.28;99965.03;5226250;27;33685;-90
2022/04/14 12:58:09;;;;;;;;;;;;;;;25.26;15.23;99966.22;5225378;27;34030;-90
2022/04/14 13:00:45;;;;;;;;;;;;;;;25.05;15.93;99965.88;5223996;27;33421;-88